Thunderstorms From: 15-12-2017 06:00 Until: 16-12-2017 06:00 warning for: Thunderstorms Level: Yellow info button

Although rather usual in this region, locally or potentially dangerous phenomena are expected. (such as local winds, summer thunderstorms, rising streams or high waves) Be aware and pay attention to the latest weather updates, especially if you carry out activities exposed to weather or close to a stream or shoreline. 


Meteo18 Weather Cam more information Meteo18 Weather Cam


warning for Thunderstorms more information blitzortung!


Rain radar more information rain snow radar


Visit our other weather sites:

Template documentation
and downloads

And another site



Weather Underground History page Text

Daily Summary for May 13, 2017 Units:  Metric    English   Both
« Previous Day
Next Day »
Daily Weekly Monthly Yearly Custom
  High: Low: Average:
Temperature: 18.2 °C 8.4 °C 13.7 °C
Dew Point: 13.8 °C 8.0 °C 11.3 °C
Humidity: 98 % 66 % 86 %
Wind Speed: 16.1 km/h 0.0 km/h 4 km/h
Wind Gust: 22.5 km/h - -
Wind:- - SW
Pressure: 1018.5 hPa 1009.4 hPa -
Precipitation: 1.0 mm    
Historical Graphs
 
 
Tabular Data for May 13, 2017
Time Temperature Dew Point Pressure Wind Wind Speed Wind Gust Humidity Rainfall Rate (Hourly)
00:02 11.8 °C 11.2 °C 1009.4 hPa Calm     96 % 0.0 mm
00:07 11.8 °C 11.3 °C 1009.4 hPa Calm     97 % 0.0 mm
00:12 11.7 °C 11.1 °C 1009.4 hPa Calm     96 % 0.0 mm
00:17 11.6 °C 11.0 °C 1009.4 hPa Calm     96 % 0.0 mm
00:22 11.5 °C 10.9 °C 1009.4 hPa Calm     96 % 0.0 mm
00:27 11.4 °C 10.8 °C 1009.4 hPa Calm     96 % 0.0 mm
00:32 11.2 °C 10.6 °C 1009.4 hPa Calm     96 % 0.0 mm
00:42 11.4 °C 10.9 °C 1009.4 hPa Calm     97 % 0.0 mm
00:47 11.4 °C 10.9 °C 1009.4 hPa Calm     97 % 0.0 mm
00:52 11.3 °C 10.8 °C 1009.4 hPa Calm     97 % 0.0 mm
00:57 11.4 °C 10.9 °C 1009.4 hPa Calm     97 % 0.0 mm
01:02 11.4 °C 10.9 °C 1009.4 hPa Calm     97 % 0.0 mm
01:12 11.0 °C 10.4 °C 1009.4 hPa Calm     96 % 0.3 mm
01:17 10.9 °C 10.3 °C 1009.4 hPa Calm     96 % 0.3 mm
01:22 10.8 °C 10.2 °C 1009.4 hPa Calm     96 % 0.3 mm
01:32 10.8 °C 10.3 °C 1009.4 hPa Calm     97 % 0.3 mm
01:42 10.8 °C 10.3 °C 1009.7 hPa Calm     97 % 0.3 mm
01:47 10.7 °C 10.2 °C 1009.7 hPa Calm     97 % 0.3 mm
01:52 10.8 °C 10.3 °C 1009.7 hPa Calm     97 % 0.3 mm
01:57 10.9 °C 10.4 °C 1009.7 hPa Calm     97 % 0.3 mm
02:02 10.9 °C 10.4 °C 1009.4 hPa Calm     97 % 0.3 mm
02:07 10.9 °C 10.4 °C 1009.4 hPa Calm     97 % 0.0 mm
02:12 10.8 °C 10.3 °C 1009.4 hPa Calm     97 % 0.0 mm
02:17 10.6 °C 10.0 °C 1009.4 hPa Calm     96 % 0.0 mm
02:22 10.5 °C 10.0 °C 1009.4 hPa Calm     97 % 0.0 mm
02:32 10.4 °C 9.9 °C 1009.4 hPa Calm     97 % 0.0 mm
02:37 10.3 °C 9.8 °C 1009.7 hPa Calm     97 % 0.0 mm
02:42 10.3 °C 9.8 °C 1009.7 hPa Calm     97 % 0.0 mm
02:47 10.2 °C 9.7 °C 1009.7 hPa Calm     97 % 0.0 mm
02:52 10.1 °C 9.6 °C 1009.7 hPa Calm     97 % 0.0 mm
02:57 10.2 °C 9.7 °C 1009.7 hPa Calm     97 % 0.0 mm
03:02 10.2 °C 9.7 °C 1009.7 hPa Calm     97 % 0.0 mm
03:07 10.2 °C 9.7 °C 1009.7 hPa Calm     97 % 0.0 mm
03:12 10.1 °C 9.6 °C 1009.7 hPa Calm     97 % 0.0 mm
03:17 9.9 °C 9.4 °C 1009.7 hPa Calm     97 % 0.0 mm
03:22 9.8 °C 9.3 °C 1009.7 hPa Calm     97 % 0.0 mm
03:32 9.7 °C 9.2 °C 1009.7 hPa Calm     97 % 0.0 mm
03:42 9.6 °C 9.1 °C 1009.7 hPa Calm     97 % 0.0 mm
03:47 9.6 °C 9.1 °C 1009.7 hPa Calm     97 % 0.0 mm
03:52 9.6 °C 9.1 °C 1009.7 hPa Calm     97 % 0.0 mm
03:57 9.7 °C 9.2 °C 1009.7 hPa North 1.6 km/h   97 % 0.0 mm
04:02 9.7 °C 9.2 °C 1009.7 hPa Calm   1.6 km/h 97 % 0.0 mm
04:12 9.6 °C 9.1 °C 1009.7 hPa Calm   1.6 km/h 97 % 0.0 mm
04:17 9.6 °C 9.1 °C 1009.7 hPa Calm   1.6 km/h 97 % 0.0 mm
04:22 9.4 °C 8.9 °C 1009.7 hPa Calm   1.6 km/h 97 % 0.0 mm
04:27 9.4 °C 8.9 °C 1010.0 hPa Calm     97 % 0.0 mm
04:32 9.4 °C 8.9 °C 1010.0 hPa Calm     97 % 0.0 mm
04:37 9.5 °C 9.0 °C 1010.0 hPa Calm     97 % 0.0 mm
04:42 9.4 °C 8.9 °C 1010.0 hPa Calm     97 % 0.0 mm
04:47 9.4 °C 8.9 °C 1010.0 hPa Calm     97 % 0.0 mm
04:52 9.2 °C 8.7 °C 1010.0 hPa Calm     97 % 0.0 mm
04:57 9.1 °C 8.6 °C 1010.0 hPa Calm     97 % 0.0 mm
05:02 9.1 °C 8.6 °C 1010.0 hPa Calm     97 % 0.0 mm
05:12 9.0 °C 8.5 °C 1010.0 hPa Calm     97 % 0.0 mm
05:17 8.9 °C 8.4 °C 1010.0 hPa Calm     97 % 0.0 mm
05:22 8.7 °C 8.3 °C 1010.0 hPa Calm     97 % 0.0 mm
05:27 8.7 °C 8.3 °C 1010.0 hPa Calm     97 % 0.0 mm
05:32 8.8 °C 8.3 °C 1010.0 hPa Calm     97 % 0.0 mm
05:37 8.8 °C 8.3 °C 1010.0 hPa Calm     97 % 0.0 mm
05:42 8.8 °C 8.3 °C 1010.4 hPa Calm     97 % 0.0 mm
05:47 8.6 °C 8.2 °C 1010.4 hPa Calm     97 % 0.3 mm
05:52 8.6 °C 8.2 °C 1010.4 hPa Calm     97 % 0.3 mm
05:57 8.7 °C 8.3 °C 1010.4 hPa Calm     97 % 0.3 mm
06:02 8.4 °C 8.0 °C 1010.4 hPa Calm     97 % 0.3 mm
06:07 8.4 °C 8.0 °C 1010.7 hPa Calm     97 % 0.3 mm
06:12 8.7 °C 8.3 °C 1010.7 hPa Calm     97 % 0.3 mm
06:17 8.8 °C 8.5 °C 1010.7 hPa Calm     98 % 0.5 mm
06:22 8.9 °C 8.6 °C 1010.7 hPa Calm     98 % 0.5 mm
06:27 9.1 °C 8.8 °C 1010.7 hPa Calm     98 % 0.5 mm
06:32 9.1 °C 8.8 °C 1011.1 hPa Calm     98 % 0.5 mm
06:42 9.1 °C 8.6 °C 1011.1 hPa Calm     97 % 0.5 mm
06:47 9.2 °C 8.9 °C 1011.1 hPa Calm     98 % 0.5 mm
06:52 9.0 °C 8.5 °C 1011.1 hPa Calm     97 % 0.5 mm
06:57 8.8 °C 8.3 °C 1011.1 hPa Calm     97 % 0.5 mm
07:02 8.8 °C 8.3 °C 1011.1 hPa Calm     97 % 0.5 mm
07:07 8.7 °C 8.3 °C 1011.4 hPa Calm     97 % 0.5 mm
07:12 8.7 °C 8.3 °C 1011.4 hPa Calm     97 % 0.5 mm
07:17 8.7 °C 8.3 °C 1011.4 hPa Calm     97 % 0.0 mm
07:22 8.7 °C 8.3 °C 1011.4 hPa Calm     97 % 0.0 mm
07:32 8.8 °C 8.3 °C 1011.7 hPa Calm     97 % 0.0 mm
07:37 9.1 °C 8.8 °C 1011.7 hPa Calm     98 % 0.0 mm
07:42 9.3 °C 9.0 °C 1011.7 hPa Calm     98 % 0.0 mm
07:47 9.6 °C 9.3 °C 1012.1 hPa Calm     98 % 0.0 mm
07:57 10.1 °C 9.8 °C 1012.1 hPa SW 3.2 km/h 4.8 km/h 98 % 0.0 mm
08:02 10.2 °C 9.9 °C 1012.1 hPa Calm   4.8 km/h 98 % 0.0 mm
08:07 10.6 °C 10.3 °C 1012.1 hPa Calm   4.8 km/h 98 % 0.0 mm
08:12 11.1 °C 10.8 °C 1012.1 hPa SW 3.2 km/h 4.8 km/h 98 % 0.0 mm
08:17 11.3 °C 11.0 °C 1012.1 hPa SW 3.2 km/h 4.8 km/h 98 % 0.0 mm
08:27 11.9 °C 11.6 °C 1012.4 hPa SW 4.8 km/h 8.0 km/h 98 % 0.0 mm
08:32 12.2 °C 11.9 °C 1012.4 hPa West 4.8 km/h 8.0 km/h 98 % 0.0 mm
08:42 12.6 °C 12.1 °C 1012.4 hPa SW 6.4 km/h 9.7 km/h 97 % 0.0 mm
08:47 12.7 °C 12.2 °C 1012.8 hPa West 6.4 km/h 9.7 km/h 97 % 0.0 mm
08:57 12.8 °C 12.3 °C 1012.8 hPa WNW 6.4 km/h 9.7 km/h 97 % 0.0 mm
09:02 12.9 °C 12.4 °C 1012.8 hPa SW 4.8 km/h 9.7 km/h 97 % 0.0 mm
09:12 13.1 °C 12.5 °C 1012.8 hPa SW 3.2 km/h 12.9 km/h 96 % 0.3 mm
09:17 13.2 °C 12.6 °C 1012.8 hPa WSW 3.2 km/h 9.7 km/h 96 % 0.3 mm
09:27 13.6 °C 12.8 °C 1012.8 hPa SW 4.8 km/h 8.0 km/h 95 % 0.3 mm
09:32 13.9 °C 12.9 °C 1012.8 hPa WSW 4.8 km/h 8.0 km/h 94 % 0.3 mm
09:37 14.2 °C 13.1 °C 1013.1 hPa WNW 6.4 km/h 8.0 km/h 93 % 0.3 mm
09:42 14.4 °C 13.3 °C 1013.1 hPa WSW 3.2 km/h 8.0 km/h 93 % 0.3 mm
09:47 14.9 °C 13.4 °C 1013.1 hPa SW 4.8 km/h 9.7 km/h 91 % 0.3 mm
09:52 14.9 °C 13.1 °C 1013.4 hPa SW 6.4 km/h 9.7 km/h 89 % 0.3 mm
09:57 14.9 °C 13.1 °C 1013.4 hPa WSW 9.7 km/h 12.9 km/h 89 % 0.3 mm
10:02 14.8 °C 12.7 °C 1013.4 hPa WSW 12.9 km/h 14.5 km/h 87 % 0.3 mm
10:12 14.7 °C 12.4 °C 1013.8 hPa WSW 12.9 km/h 20.9 km/h 86 % 0.0 mm
10:22 14.6 °C 12.1 °C 1013.8 hPa WSW 12.9 km/h 20.9 km/h 85 % 0.0 mm
10:27 14.6 °C 12.1 °C 1013.8 hPa WSW 8.0 km/h 20.9 km/h 85 % 0.0 mm
10:32 14.7 °C 12.0 °C 1013.8 hPa West 8.0 km/h 20.9 km/h 84 % 0.0 mm
10:37 14.9 °C 12.6 °C 1013.8 hPa West 8.0 km/h 20.9 km/h 86 % 0.0 mm
10:42 15.1 °C 12.4 °C 1014.1 hPa WNW 8.0 km/h 17.7 km/h 84 % 0.0 mm
10:47 14.9 °C 12.0 °C 1014.1 hPa WSW 8.0 km/h 17.7 km/h 83 % 0.0 mm
10:57 15.2 °C 12.1 °C 1014.4 hPa West 11.3 km/h 16.1 km/h 82 % 0.0 mm
11:02 15.2 °C 12.0 °C 1014.4 hPa WSW 6.4 km/h 16.1 km/h 81 % 0.0 mm
11:12 15.2 °C 12.0 °C 1014.4 hPa West 4.8 km/h 16.1 km/h 81 % 0.0 mm
11:17 15.3 °C 12.4 °C 1014.4 hPa WSW 9.7 km/h 19.3 km/h 83 % 0.0 mm
11:22 15.4 °C 12.5 °C 1014.4 hPa SSW 1.6 km/h 19.3 km/h 83 % 0.0 mm
11:32 15.4 °C 12.5 °C 1014.4 hPa WSW 11.3 km/h 17.7 km/h 83 % 0.0 mm
11:42 15.6 °C 12.2 °C 1014.4 hPa West 4.8 km/h 17.7 km/h 80 % 0.0 mm
11:47 15.5 °C 12.3 °C 1014.4 hPa West 3.2 km/h 16.1 km/h 81 % 0.0 mm
11:57 15.7 °C 12.6 °C 1014.8 hPa SW 8.0 km/h 14.5 km/h 82 % 0.0 mm
12:02 15.7 °C 12.6 °C 1014.8 hPa WSW 8.0 km/h 14.5 km/h 82 % 0.0 mm
12:07 15.8 °C 12.4 °C 1014.8 hPa SSW 11.3 km/h 14.5 km/h 80 % 0.0 mm
12:12 15.9 °C 12.8 °C 1014.8 hPa West 6.4 km/h 16.1 km/h 82 % 0.0 mm
12:17 15.9 °C 12.5 °C 1015.1 hPa SW 11.3 km/h 16.1 km/h 80 % 0.0 mm
12:22 15.8 °C 12.2 °C 1015.1 hPa WSW 8.0 km/h 16.1 km/h 79 % 0.0 mm
12:32 16.0 °C 12.4 °C 1015.1 hPa South 8.0 km/h 19.3 km/h 79 % 0.0 mm
12:37 16.2 °C 12.6 °C 1015.1 hPa SW 16.1 km/h 19.3 km/h 79 % 0.0 mm
12:42 16.2 °C 12.4 °C 1015.1 hPa SSW 11.3 km/h 22.5 km/h 78 % 0.0 mm
12:52 16.1 °C 13.0 °C 1015.1 hPa West 8.0 km/h 19.3 km/h 82 % 0.0 mm
12:57 16.2 °C 12.9 °C 1015.1 hPa SW 3.2 km/h 19.3 km/h 81 % 0.0 mm
13:02 16.2 °C 12.6 °C 1015.1 hPa SW 9.7 km/h 16.1 km/h 79 % 0.0 mm
13:07 16.4 °C 12.9 °C 1015.1 hPa SSE 9.7 km/h 17.7 km/h 80 % 0.0 mm
13:12 16.3 °C 12.7 °C 1015.1 hPa SW 12.9 km/h 17.7 km/h 79 % 0.0 mm
13:17 16.5 °C 13.2 °C 1015.1 hPa South 14.5 km/h 17.7 km/h 81 % 0.0 mm
13:22 16.5 °C 12.5 °C 1015.1 hPa WNW 3.2 km/h 17.7 km/h 77 % 0.0 mm
13:27 16.6 °C 12.6 °C 1015.1 hPa SW 14.5 km/h 17.7 km/h 77 % 0.0 mm
13:32 16.7 °C 12.6 °C 1015.1 hPa SSW 4.8 km/h 19.3 km/h 77 % 0.0 mm
13:37 17.1 °C 13.2 °C 1015.1 hPa SW 14.5 km/h 20.9 km/h 78 % 0.0 mm
13:42 17.2 °C 13.3 °C 1015.1 hPa SSW 8.0 km/h 20.9 km/h 78 % 0.0 mm
13:47 17.5 °C 13.0 °C 1015.1 hPa WSW 12.9 km/h 17.7 km/h 75 % 0.0 mm
13:52 17.6 °C 12.7 °C 1015.1 hPa South 11.3 km/h 20.9 km/h 73 % 0.0 mm
13:57 17.4 °C 12.5 °C 1015.1 hPa South 8.0 km/h 20.9 km/h 73 % 0.0 mm
14:02 17.6 °C 13.3 °C 1015.1 hPa WSW 9.7 km/h 22.5 km/h 76 % 0.0 mm
14:12 18.1 °C 13.4 °C 1015.1 hPa SW 11.3 km/h 20.9 km/h 74 % 0.0 mm
14:17 17.9 °C 13.0 °C 1015.1 hPa SSE 11.3 km/h 17.7 km/h 73 % 0.0 mm
14:22 17.8 °C 13.1 °C 1015.1 hPa WSW 16.1 km/h 19.3 km/h 74 % 0.0 mm
14:32 17.8 °C 13.1 °C 1015.1 hPa WSW 6.4 km/h 19.3 km/h 74 % 0.0 mm
14:37 17.9 °C 12.8 °C 1015.1 hPa West 6.4 km/h 19.3 km/h 72 % 0.0 mm
14:42 17.8 °C 12.7 °C 1015.1 hPa WSW 8.0 km/h 19.3 km/h 72 % 0.0 mm
14:47 17.7 °C 11.7 °C 1015.1 hPa West 6.4 km/h 14.5 km/h 68 % 0.0 mm
14:52 17.9 °C 12.8 °C 1015.1 hPa WSW 4.8 km/h 16.1 km/h 72 % 0.0 mm
14:57 17.9 °C 12.1 °C 1015.1 hPa SW 12.9 km/h 16.1 km/h 69 % 0.0 mm
15:02 18.2 °C 12.6 °C 1015.1 hPa SSW 4.8 km/h 16.1 km/h 70 % 0.0 mm
15:12 18.1 °C 11.9 °C 1015.1 hPa SW 8.0 km/h 19.3 km/h 67 % 0.0 mm
15:17 18.0 °C 12.7 °C 1015.5 hPa SSW 8.0 km/h 19.3 km/h 71 % 0.0 mm
15:22 17.9 °C 12.4 °C 1015.5 hPa WSW 11.3 km/h 19.3 km/h 70 % 0.0 mm
15:32 17.8 °C 12.3 °C 1015.5 hPa SW 8.0 km/h 19.3 km/h 70 % 0.0 mm
15:37 17.7 °C 12.2 °C 1015.5 hPa SW 9.7 km/h 19.3 km/h 70 % 0.0 mm
15:42 17.7 °C 12.4 °C 1015.5 hPa SSW 9.7 km/h 16.1 km/h 71 % 0.0 mm
15:52 17.7 °C 12.8 °C 1015.5 hPa SSW 8.0 km/h 12.9 km/h 73 % 0.0 mm
15:57 17.7 °C 12.4 °C 1015.5 hPa SW 6.4 km/h 12.9 km/h 71 % 0.0 mm
16:02 17.7 °C 12.8 °C 1015.5 hPa WSW 8.0 km/h 14.5 km/h 73 % 0.0 mm
16:07 17.7 °C 12.6 °C 1015.5 hPa SSW 8.0 km/h 14.5 km/h 72 % 0.0 mm
16:12 17.8 °C 12.9 °C 1015.5 hPa SSW 12.9 km/h 14.5 km/h 73 % 0.0 mm
16:17 17.7 °C 12.4 °C 1015.5 hPa SSW 16.1 km/h 20.9 km/h 71 % 0.0 mm
16:22 17.6 °C 12.7 °C 1015.5 hPa SW 6.4 km/h 20.9 km/h 73 % 0.0 mm
16:27 17.7 °C 12.6 °C 1015.5 hPa SSW 8.0 km/h 20.9 km/h 72 % 0.0 mm
16:32 17.8 °C 12.7 °C 1015.5 hPa SW 6.4 km/h 17.7 km/h 72 % 0.0 mm
16:37 17.8 °C 12.9 °C 1015.5 hPa SSW 6.4 km/h 16.1 km/h 73 % 0.0 mm
16:42 17.9 °C 13.2 °C 1015.5 hPa SW 8.0 km/h 16.1 km/h 74 % 0.0 mm
16:52 17.7 °C 12.6 °C 1015.5 hPa SW 8.0 km/h 17.7 km/h 72 % 0.0 mm
16:57 17.7 °C 12.4 °C 1015.5 hPa SW 4.8 km/h 17.7 km/h 71 % 0.0 mm
17:02 17.6 °C 12.7 °C 1015.8 hPa South 9.7 km/h 17.7 km/h 73 % 0.0 mm
17:07 17.6 °C 12.7 °C 1015.8 hPa SW 6.4 km/h 14.5 km/h 73 % 0.0 mm
17:12 17.6 °C 12.7 °C 1015.8 hPa SW 8.0 km/h 14.5 km/h 73 % 0.0 mm
17:22 17.6 °C 13.1 °C 1015.8 hPa SSW 8.0 km/h 14.5 km/h 75 % 0.0 mm
17:32 17.5 °C 12.8 °C 1015.8 hPa SSW 4.8 km/h 12.9 km/h 74 % 0.0 mm
17:37 17.4 °C 13.1 °C 1015.8 hPa SW 6.4 km/h 12.9 km/h 76 % 0.0 mm
17:42 17.5 °C 13.4 °C 1015.8 hPa SW 4.8 km/h 11.3 km/h 77 % 0.0 mm
17:47 17.6 °C 12.9 °C 1015.8 hPa WSW 8.0 km/h 12.9 km/h 74 % 0.0 mm
17:52 17.7 °C 13.0 °C 1015.8 hPa WSW 12.9 km/h 16.1 km/h 74 % 0.0 mm
17:57 17.8 °C 12.9 °C 1015.8 hPa South 8.0 km/h 16.1 km/h 73 % 0.0 mm
18:02 17.8 °C 13.1 °C 1015.8 hPa SSW 8.0 km/h 16.1 km/h 74 % 0.0 mm
18:12 17.7 °C 13.2 °C 1015.8 hPa WSW 8.0 km/h 14.5 km/h 75 % 0.0 mm
18:17 17.6 °C 12.9 °C 1015.8 hPa WSW 8.0 km/h 14.5 km/h 74 % 0.0 mm
18:22 17.6 °C 12.9 °C 1015.8 hPa SW 4.8 km/h 14.5 km/h 74 % 0.0 mm
18:32 17.4 °C 12.7 °C 1015.8 hPa West 3.2 km/h 12.9 km/h 74 % 0.0 mm
18:42 17.4 °C 12.9 °C 1015.8 hPa WSW 6.4 km/h 11.3 km/h 75 % 0.0 mm
18:52 17.6 °C 13.3 °C 1015.8 hPa SSW 6.4 km/h 11.3 km/h 76 % 0.0 mm
18:57 17.6 °C 13.3 °C 1015.8 hPa SW 4.8 km/h 11.3 km/h 76 % 0.0 mm
19:02 17.6 °C 13.3 °C 1015.8 hPa SSW 9.7 km/h 11.3 km/h 76 % 0.0 mm
19:07 17.5 °C 13.0 °C 1015.8 hPa SSW 8.0 km/h 11.3 km/h 75 % 0.0 mm
19:12 17.5 °C 13.2 °C 1016.1 hPa SSW 8.0 km/h 11.3 km/h 76 % 0.0 mm
19:17 17.4 °C 12.9 °C 1016.1 hPa SW 6.4 km/h 11.3 km/h 75 % 0.0 mm
19:22 17.4 °C 13.3 °C 1016.1 hPa SW 8.0 km/h 11.3 km/h 77 % 0.0 mm
19:27 17.4 °C 13.1 °C 1016.1 hPa SW 4.8 km/h 11.3 km/h 76 % 0.0 mm
19:32 17.3 °C 13.4 °C 1016.1 hPa SW 8.0 km/h 11.3 km/h 78 % 0.0 mm
19:37 17.3 °C 13.2 °C 1016.1 hPa SW 4.8 km/h 9.7 km/h 77 % 0.0 mm
19:42 17.2 °C 13.3 °C 1016.1 hPa SW 1.6 km/h 9.7 km/h 78 % 0.0 mm
19:52 17.4 °C 13.7 °C 1016.1 hPa SSW 4.8 km/h 9.7 km/h 79 % 0.0 mm
19:57 17.7 °C 13.8 °C 1016.1 hPa SSW 3.2 km/h 8.0 km/h 78 % 0.0 mm
20:02 17.8 °C 13.7 °C 1016.5 hPa South 6.4 km/h 8.0 km/h 77 % 0.0 mm
20:07 18.0 °C 13.7 °C 1016.5 hPa SW 8.0 km/h 8.0 km/h 76 % 0.0 mm
20:12 18.1 °C 13.4 °C 1016.5 hPa SW 6.4 km/h 11.3 km/h 74 % 0.0 mm
20:17 18.0 °C 12.9 °C 1016.5 hPa SSW 4.8 km/h 12.9 km/h 72 % 0.0 mm
20:22 17.9 °C 12.1 °C 1016.5 hPa SW 6.4 km/h 12.9 km/h 69 % 0.0 mm
20:32 17.6 °C 11.2 °C 1016.8 hPa SW 6.4 km/h 11.3 km/h 66 % 0.0 mm
20:42 17.4 °C 11.7 °C 1016.8 hPa Calm   8.0 km/h 69 % 0.0 mm
20:47 17.3 °C 12.0 °C 1016.8 hPa SSW 3.2 km/h 8.0 km/h 71 % 0.0 mm
20:52 17.1 °C 12.4 °C 1016.8 hPa Calm   3.2 km/h 74 % 0.0 mm
20:57 16.7 °C 12.2 °C 1017.2 hPa SW 1.6 km/h 3.2 km/h 75 % 0.0 mm
21:02 16.3 °C 11.7 °C 1017.2 hPa SW 3.2 km/h 3.2 km/h 74 % 0.0 mm
21:12 15.8 °C 11.4 °C 1017.2 hPa Calm   4.8 km/h 75 % 0.0 mm
21:17 15.5 °C 11.1 °C 1017.2 hPa SW 1.6 km/h 4.8 km/h 75 % 0.0 mm
21:22 15.4 °C 11.0 °C 1017.5 hPa Calm   4.8 km/h 75 % 0.0 mm
21:32 15.1 °C 10.9 °C 1017.5 hPa Calm   3.2 km/h 76 % 0.0 mm
21:37 14.7 °C 10.9 °C 1017.5 hPa Calm   1.6 km/h 78 % 0.0 mm
21:42 14.4 °C 10.8 °C 1017.5 hPa Calm     79 % 0.0 mm
21:47 14.2 °C 10.6 °C 1017.5 hPa Calm     79 % 0.0 mm
21:52 14.2 °C 10.6 °C 1017.5 hPa Calm     79 % 0.0 mm
21:57 13.8 °C 10.4 °C 1017.5 hPa Calm     80 % 0.0 mm
22:02 13.6 °C 10.4 °C 1017.8 hPa Calm     81 % 0.0 mm
22:07 13.3 °C 10.3 °C 1017.8 hPa Calm     82 % 0.0 mm
22:17 13.1 °C 10.6 °C 1017.8 hPa Calm     85 % 0.0 mm
22:22 12.9 °C 10.4 °C 1017.8 hPa Calm     85 % 0.0 mm
22:32 12.4 °C 10.1 °C 1017.8 hPa Calm     86 % 0.0 mm
22:37 12.3 °C 10.2 °C 1018.2 hPa Calm     87 % 0.0 mm
22:42 12.2 °C 10.3 °C 1017.8 hPa Calm     88 % 0.0 mm
22:47 12.3 °C 10.5 °C 1018.2 hPa Calm     89 % 0.0 mm
22:52 12.4 °C 10.6 °C 1018.2 hPa Calm     89 % 0.0 mm
23:02 12.1 °C 10.3 °C 1018.2 hPa Calm     89 % 0.0 mm
23:07 12.1 °C 10.3 °C 1018.2 hPa Calm     89 % 0.0 mm
23:12 11.9 °C 10.1 °C 1018.2 hPa Calm   3.2 km/h 89 % 0.0 mm
23:17 12.0 °C 10.4 °C 1018.2 hPa Calm   3.2 km/h 90 % 0.0 mm
23:22 12.3 °C 10.9 °C 1018.2 hPa Calm   4.8 km/h 91 % 0.0 mm
23:32 12.7 °C 10.9 °C 1018.5 hPa SW 3.2 km/h 3.2 km/h 89 % 0.0 mm
23:37 12.7 °C 10.9 °C 1018.5 hPa SSW 1.6 km/h 4.8 km/h 89 % 0.0 mm
23:42 12.8 °C 11.0 °C 1018.5 hPa SW 1.6 km/h 4.8 km/h 89 % 0.0 mm
23:47 12.8 °C 11.0 °C 1018.5 hPa SW 1.6 km/h 3.2 km/h 89 % 0.0 mm
23:52 12.7 °C 10.8 °C 1018.5 hPa Calm   3.2 km/h 88 % 0.0 mm
Meteo18
Compliments of Weather Underground - 4 mb

Script developed by  Jim McMurry - jmcmurry@mwt.net Adapted for the template by  Wim van der Kuil - Leuven-Template.eu

You find our weather info also at:

European Weather Network

Weather Underground

Equipment we use:

Weather-station
Davis Vue

Weather-program
Meteohub

Weather-server
Raspberry PI 2 B+

Provider
1 and 1

Davis Vue

Meteohub

Raspberry PI 2 B+

1 and 1